createdAt,value
2022-07-25T00:00:57.945Z,0.00
2022-07-25T00:01:55.211Z,0.00
2022-07-25T00:02:55.168Z,0.00
2022-07-25T00:03:54.918Z,0.00
2022-07-25T00:04:54.942Z,0.00
2022-07-25T00:05:55.083Z,0.00
2022-07-25T00:06:56.098Z,0.00
2022-07-25T00:07:54.864Z,0.00
2022-07-25T00:08:54.866Z,0.00
2022-07-25T00:10:10.284Z,0.00
2022-07-25T00:10:55.818Z,0.00
2022-07-25T00:11:54.809Z,0.00
2022-07-25T00:12:55.834Z,0.00
2022-07-25T00:13:54.803Z,0.00
2022-07-25T00:14:57.808Z,0.00
2022-07-25T00:16:19.146Z,0.00
2022-07-25T00:16:54.748Z,0.00
2022-07-25T00:17:55.765Z,0.00
2022-07-25T00:18:54.764Z,0.00
2022-07-25T00:19:55.961Z,0.00
2022-07-25T00:20:55.945Z,0.00
2022-07-25T00:21:55.954Z,0.00
2022-07-25T00:22:55.952Z,0.00
2022-07-25T00:23:54.938Z,0.00
2022-07-25T00:24:54.922Z,0.00
2022-07-25T00:25:54.658Z,0.00
2022-07-25T00:26:55.887Z,0.00
2022-07-25T00:28:01.891Z,0.00
2022-07-25T00:28:54.635Z,0.00
2022-07-25T00:29:54.843Z,0.00
2022-07-25T00:30:54.913Z,0.00
2022-07-25T00:31:54.590Z,0.00
2022-07-25T00:32:55.610Z,0.00
2022-07-25T00:33:57.590Z,0.00
2022-07-25T00:34:55.828Z,0.00
2022-07-25T00:35:55.596Z,0.00
2022-07-25T00:36:54.776Z,0.00
2022-07-25T00:37:54.769Z,0.00
2022-07-25T00:39:09.821Z,0.00
2022-07-25T00:39:54.513Z,0.00
2022-07-25T00:40:55.620Z,0.00
2022-07-25T00:41:54.506Z,0.00
2022-07-25T00:42:54.733Z,0.00
2022-07-25T00:43:54.464Z,0.00
2022-07-25T00:44:55.490Z,0.00
2022-07-25T00:45:54.463Z,0.00
2022-07-25T00:46:54.763Z,0.00
2022-07-25T00:47:54.666Z,0.00
2022-07-25T00:48:54.450Z,0.00
2022-07-25T00:49:55.417Z,0.00
2022-07-25T00:50:55.661Z,0.00
2022-07-25T00:51:54.636Z,0.00
2022-07-25T00:52:54.375Z,0.00
2022-07-25T00:53:57.410Z,0.00
2022-07-25T00:54:54.586Z,0.00
2022-07-25T00:55:54.349Z,0.00
2022-07-25T00:56:54.367Z,0.00
2022-07-25T00:57:54.555Z,0.00
2022-07-25T00:58:55.546Z,0.00
2022-07-25T00:59:54.547Z,0.00
2022-07-25T01:00:54.293Z,0.00
2022-07-25T01:01:54.334Z,0.00
2022-07-25T01:02:54.358Z,0.00
2022-07-25T01:03:54.269Z,0.00
2022-07-25T01:04:57.546Z,0.00
2022-07-25T01:05:54.240Z,0.00
2022-07-25T01:06:54.230Z,0.00
2022-07-25T01:07:57.259Z,0.00
2022-07-25T01:08:54.228Z,0.00
2022-07-25T01:09:55.219Z,0.00
2022-07-25T01:10:55.439Z,0.00
2022-07-25T01:11:55.175Z,0.00
2022-07-25T01:12:57.201Z,0.00
2022-07-25T01:13:54.178Z,0.00
2022-07-25T01:14:57.194Z,0.00
2022-07-25T01:15:54.209Z,0.00
2022-07-25T01:16:55.157Z,0.00
2022-07-25T01:17:54.157Z,0.00
2022-07-25T01:18:55.119Z,0.00
2022-07-25T01:20:01.490Z,0.00
2022-07-25T01:20:57.115Z,0.00
2022-07-25T01:21:55.109Z,0.00
2022-07-25T01:22:55.295Z,0.00
2022-07-25T01:23:54.324Z,0.00
2022-07-25T01:24:54.058Z,0.00
2022-07-25T01:25:54.038Z,0.00
2022-07-25T01:26:54.021Z,0.00
2022-07-25T01:27:55.885Z,0.00
2022-07-25T01:28:54.028Z,0.00
2022-07-25T01:29:54.013Z,0.00
2022-07-25T01:30:54.211Z,0.00
2022-07-25T01:32:01.363Z,0.00
2022-07-25T01:32:54.185Z,0.00
2022-07-25T01:33:53.974Z,0.00
2022-07-25T01:34:54.943Z,0.00
2022-07-25T01:35:53.919Z,0.00
2022-07-25T01:36:53.933Z,0.00
2022-07-25T01:38:01.296Z,0.00
2022-07-25T01:38:54.947Z,0.00
2022-07-25T01:39:54.159Z,0.00
2022-07-25T01:40:53.866Z,0.00
2022-07-25T01:42:00.936Z,0.00
2022-07-25T01:42:53.875Z,0.00
2022-07-25T01:43:54.852Z,0.00
2022-07-25T01:44:54.083Z,0.00
2022-07-25T01:45:54.901Z,0.00
2022-07-25T01:46:54.043Z,0.00
2022-07-25T01:47:53.806Z,0.00
2022-07-25T01:48:54.893Z,0.00
2022-07-25T01:49:54.010Z,0.00
2022-07-25T01:50:53.791Z,0.00
2022-07-25T01:51:53.768Z,0.00
2022-07-25T01:52:53.782Z,0.00
2022-07-25T01:53:53.979Z,0.00
2022-07-25T01:54:54.206Z,0.00
2022-07-25T01:55:54.492Z,0.00
2022-07-25T01:56:53.934Z,0.00
2022-07-25T01:58:09.154Z,0.00
2022-07-25T01:58:53.699Z,0.00
2022-07-25T01:59:53.691Z,0.00
2022-07-25T02:00:54.928Z,0.00
2022-07-25T02:01:53.947Z,0.00
2022-07-25T02:02:53.651Z,0.00
2022-07-25T02:03:53.643Z,0.00
2022-07-25T02:04:53.738Z,0.00
2022-07-25T02:05:54.840Z,0.00
2022-07-25T02:06:56.626Z,0.00
2022-07-25T02:07:53.861Z,0.00
2022-07-25T02:08:54.579Z,0.00
2022-07-25T02:10:14.568Z,0.00
2022-07-25T02:10:53.798Z,0.00
2022-07-25T02:11:53.784Z,0.00
2022-07-25T02:12:53.556Z,0.00
2022-07-25T02:13:53.573Z,0.00
2022-07-25T02:14:54.545Z,0.00
2022-07-25T02:15:53.756Z,0.00
2022-07-25T02:16:54.773Z,0.00
2022-07-25T02:17:53.484Z,0.00
2022-07-25T02:18:53.730Z,0.00
2022-07-25T02:19:56.752Z,0.00
2022-07-25T02:20:54.467Z,0.00
2022-07-25T02:21:53.677Z,0.00
2022-07-25T02:22:53.662Z,0.00
2022-07-25T02:23:53.451Z,0.00
2022-07-25T02:24:56.442Z,0.00
2022-07-25T02:25:53.637Z,0.00
2022-07-25T02:26:54.417Z,0.00
2022-07-25T02:27:56.426Z,0.00
2022-07-25T02:28:53.397Z,0.00
2022-07-25T02:29:54.603Z,0.00
2022-07-25T02:31:00.611Z,0.00
2022-07-25T02:32:00.485Z,0.00
2022-07-25T02:32:54.573Z,0.00
2022-07-25T02:33:53.580Z,0.00
2022-07-25T02:34:53.316Z,0.00
2022-07-25T02:35:56.330Z,0.00
2022-07-25T02:36:53.287Z,0.00
2022-07-25T02:37:56.337Z,0.00
2022-07-25T02:38:53.282Z,0.00
2022-07-25T02:39:53.264Z,0.00
2022-07-25T02:40:53.245Z,0.00
2022-07-25T02:41:53.229Z,0.00
2022-07-25T02:42:53.226Z,0.00
2022-07-25T02:43:53.236Z,0.00
2022-07-25T02:44:53.225Z,0.00
2022-07-25T02:45:54.273Z,0.00
2022-07-25T02:46:53.173Z,0.00
2022-07-25T02:47:53.181Z,0.00
2022-07-25T02:48:53.487Z,0.00
2022-07-25T02:49:54.166Z,0.00
2022-07-25T02:50:53.394Z,0.00
2022-07-25T02:52:00.578Z,0.00
2022-07-25T02:52:53.132Z,0.00
2022-07-25T02:53:58.206Z,0.00
2022-07-25T02:54:54.336Z,0.00
2022-07-25T02:55:53.317Z,0.00
2022-07-25T02:56:53.099Z,0.00
2022-07-25T02:57:53.079Z,0.00
2022-07-25T02:58:53.292Z,0.00
2022-07-25T02:59:54.303Z,0.00
2022-07-25T03:00:53.067Z,0.00
2022-07-25T03:01:53.299Z,0.00
2022-07-25T03:02:53.036Z,0.00
2022-07-25T03:03:53.059Z,0.00
2022-07-25T03:04:53.024Z,0.00
2022-07-25T03:05:52.987Z,0.00
2022-07-25T03:06:52.972Z,0.00
2022-07-25T03:07:52.981Z,0.00
2022-07-25T03:08:52.946Z,0.00
2022-07-25T03:09:53.218Z,0.00
2022-07-25T03:11:00.035Z,0.00
2022-07-25T03:11:53.157Z,0.00
2022-07-25T03:12:52.909Z,0.00
2022-07-25T03:13:53.125Z,0.00
2022-07-25T03:14:53.140Z,0.00
2022-07-25T03:15:54.133Z,0.00
2022-07-25T03:16:53.122Z,4.00
2022-07-25T03:17:53.099Z,4.00
2022-07-25T03:18:56.089Z,4.00
2022-07-25T03:19:52.841Z,0.00
2022-07-25T03:20:52.840Z,0.00
2022-07-25T03:21:52.811Z,4.00
2022-07-25T03:22:59.890Z,4.00
2022-07-25T03:23:53.059Z,4.00
2022-07-25T03:24:53.818Z,4.00
2022-07-25T03:25:52.812Z,4.00
2022-07-25T03:27:08.443Z,8.00
2022-07-25T03:27:53.019Z,8.00
2022-07-25T03:28:52.718Z,8.00
2022-07-25T03:29:52.965Z,8.00
2022-07-25T03:30:52.961Z,12.00
2022-07-25T03:31:52.734Z,12.00
2022-07-25T03:32:52.715Z,12.00
2022-07-25T03:33:52.933Z,12.00
2022-07-25T03:34:53.685Z,16.00
2022-07-25T03:35:52.907Z,16.00
2022-07-25T03:36:52.674Z,16.00
2022-07-25T03:37:52.894Z,20.00
2022-07-25T03:38:52.636Z,24.00
2022-07-25T03:39:53.644Z,24.00
2022-07-25T03:40:53.615Z,28.00
2022-07-25T03:41:52.829Z,32.00
2022-07-25T03:42:52.620Z,32.00
2022-07-25T03:43:52.599Z,36.00
2022-07-25T03:44:55.593Z,40.00
2022-07-25T03:45:52.570Z,44.00
2022-07-25T03:46:52.793Z,48.00
2022-07-25T03:47:52.565Z,52.00
2022-07-25T03:48:52.579Z,56.00
2022-07-25T03:49:52.753Z,56.00
2022-07-25T03:50:52.527Z,64.00
2022-07-25T03:51:55.533Z,68.00
2022-07-25T03:52:52.544Z,76.00
2022-07-25T03:53:52.484Z,76.00
2022-07-25T03:54:52.698Z,80.00
2022-07-25T03:55:52.475Z,88.00
2022-07-25T03:56:55.729Z,92.00
2022-07-25T03:57:52.438Z,100.00
2022-07-25T03:58:52.448Z,104.00
2022-07-25T03:59:52.415Z,112.00
2022-07-25T04:00:59.602Z,116.00
2022-07-25T04:01:53.669Z,120.00
2022-07-25T04:02:53.629Z,128.00
2022-07-25T04:03:52.367Z,132.00
2022-07-25T04:04:52.377Z,140.00
2022-07-25T04:05:52.580Z,144.00
2022-07-25T04:06:55.401Z,152.00
2022-07-25T04:07:52.362Z,156.00
2022-07-25T04:08:53.325Z,168.00
2022-07-25T04:09:52.360Z,172.00
2022-07-25T04:10:52.307Z,180.00
2022-07-25T04:11:53.543Z,188.00
2022-07-25T04:12:52.519Z,196.00
2022-07-25T04:13:52.327Z,204.00
2022-07-25T04:15:07.898Z,208.00
2022-07-25T04:15:52.501Z,216.00
2022-07-25T04:16:52.260Z,224.00
2022-07-25T04:17:52.250Z,232.00
2022-07-25T04:18:53.235Z,240.00
2022-07-25T04:19:52.233Z,248.00
2022-07-25T04:21:07.839Z,256.00
2022-07-25T04:21:52.191Z,264.00
2022-07-25T04:22:53.212Z,272.00
2022-07-25T04:23:52.404Z,276.00
2022-07-25T04:24:52.172Z,284.00
2022-07-25T04:26:07.622Z,292.00
2022-07-25T04:26:52.148Z,300.00
2022-07-25T04:27:52.117Z,304.00
2022-07-25T04:28:52.343Z,312.00
2022-07-25T04:29:52.121Z,320.00
2022-07-25T04:30:52.115Z,332.00
2022-07-25T04:31:52.175Z,336.00
2022-07-25T04:32:53.086Z,344.00
2022-07-25T04:33:53.314Z,352.00
2022-07-25T04:34:52.342Z,360.00
2022-07-25T04:35:53.091Z,364.00
2022-07-25T04:36:52.040Z,372.00
2022-07-25T04:37:52.046Z,376.00
2022-07-25T04:38:59.391Z,380.00
2022-07-25T04:39:52.003Z,388.00
2022-07-25T04:40:55.005Z,392.00
2022-07-25T04:41:52.203Z,396.00
2022-07-25T04:42:51.988Z,400.00
2022-07-25T04:43:52.952Z,408.00
2022-07-25T04:44:51.962Z,412.00
2022-07-25T04:45:52.213Z,416.00
2022-07-25T04:46:54.921Z,420.00
2022-07-25T04:47:52.147Z,428.00
2022-07-25T04:48:53.257Z,440.00
2022-07-25T04:49:51.914Z,444.00
2022-07-25T04:50:51.875Z,452.00
2022-07-25T04:51:51.874Z,464.00
2022-07-25T04:52:53.149Z,476.00
2022-07-25T04:53:51.819Z,484.00
2022-07-25T04:54:51.874Z,492.00
2022-07-25T04:55:51.818Z,500.00
2022-07-25T04:56:51.823Z,504.00
2022-07-25T04:57:51.819Z,508.00
2022-07-25T04:58:51.796Z,516.00
2022-07-25T04:59:51.791Z,520.00
2022-07-25T05:00:51.847Z,524.00
2022-07-25T05:01:51.842Z,528.00
2022-07-25T05:02:51.761Z,532.00
2022-07-25T05:03:51.736Z,536.00
2022-07-25T05:04:52.064Z,540.00
2022-07-25T05:05:51.738Z,548.00
2022-07-25T05:06:51.720Z,552.00
2022-07-25T05:07:51.748Z,556.00
2022-07-25T05:08:51.695Z,560.00
2022-07-25T05:09:51.721Z,568.00
2022-07-25T05:10:51.675Z,572.00
2022-07-25T05:11:55.883Z,576.00
2022-07-25T05:12:51.656Z,580.00
2022-07-25T05:13:51.642Z,580.00
2022-07-25T05:14:51.658Z,584.00
2022-07-25T05:15:51.632Z,588.00
2022-07-25T05:16:51.649Z,588.00
2022-07-25T05:17:51.617Z,592.00
2022-07-25T05:18:51.578Z,596.00
2022-07-25T05:19:51.623Z,600.00
2022-07-25T05:20:51.571Z,608.00
2022-07-25T05:21:51.579Z,616.00
2022-07-25T05:22:51.575Z,624.00
2022-07-25T05:23:51.552Z,624.00
2022-07-25T05:24:51.548Z,628.00
2022-07-25T05:25:51.513Z,636.00
2022-07-25T05:26:51.519Z,636.00
2022-07-25T05:27:51.535Z,640.00
2022-07-25T05:28:51.490Z,644.00
2022-07-25T05:29:51.483Z,648.00
2022-07-25T05:30:51.451Z,656.00
2022-07-25T05:31:51.531Z,660.00
2022-07-25T05:32:51.482Z,668.00
2022-07-25T05:33:51.424Z,672.00
2022-07-25T05:34:51.436Z,680.00
2022-07-25T05:35:51.404Z,684.00
2022-07-25T05:36:51.393Z,692.00
2022-07-25T05:37:51.397Z,700.00
2022-07-25T05:38:51.393Z,704.00
2022-07-25T05:39:51.378Z,708.00
2022-07-25T05:40:51.363Z,708.00
2022-07-25T05:41:51.334Z,716.00
2022-07-25T05:42:51.345Z,724.00
2022-07-25T05:43:51.335Z,724.00
2022-07-25T05:44:51.393Z,728.00
2022-07-25T05:45:51.305Z,728.00
2022-07-25T05:46:51.376Z,732.00
2022-07-25T05:47:52.319Z,728.00
2022-07-25T05:48:51.312Z,736.00
2022-07-25T05:49:51.287Z,740.00
2022-07-25T05:50:52.294Z,744.00
2022-07-25T05:51:51.261Z,760.00
2022-07-25T05:52:51.238Z,772.00
2022-07-25T05:53:51.215Z,788.00
2022-07-25T05:54:51.219Z,800.00
2022-07-25T05:55:51.215Z,808.00
2022-07-25T05:56:51.201Z,820.00
2022-07-25T05:57:51.192Z,828.00
2022-07-25T05:58:51.211Z,836.00
2022-07-25T05:59:51.157Z,844.00
2022-07-25T06:00:51.169Z,848.00
2022-07-25T06:01:51.251Z,852.00
2022-07-25T06:02:51.301Z,856.00
2022-07-25T06:03:51.119Z,860.00
2022-07-25T06:04:51.110Z,868.00
2022-07-25T06:05:51.100Z,872.00
2022-07-25T06:06:51.086Z,880.00
2022-07-25T06:07:51.109Z,888.00
2022-07-25T06:08:51.069Z,892.00
2022-07-25T06:09:51.055Z,904.00
2022-07-25T06:10:51.069Z,912.00
2022-07-25T06:11:58.166Z,916.00
2022-07-25T06:12:52.066Z,920.00
2022-07-25T06:13:51.009Z,924.00
2022-07-25T06:14:51.013Z,928.00
2022-07-25T06:15:51.000Z,936.00
2022-07-25T06:16:51.040Z,940.00
2022-07-25T06:17:50.982Z,944.00
2022-07-25T06:18:51.002Z,948.00
2022-07-25T06:19:50.940Z,952.00
2022-07-25T06:20:50.932Z,964.00
2022-07-25T06:21:50.943Z,972.00
2022-07-25T06:22:50.916Z,980.00
2022-07-25T06:23:50.913Z,980.00
2022-07-25T06:24:50.906Z,980.00
2022-07-25T06:25:50.932Z,984.00
2022-07-25T06:26:50.875Z,988.00
2022-07-25T06:27:50.882Z,988.00
2022-07-25T06:28:50.882Z,992.00
2022-07-25T06:29:50.848Z,996.00
2022-07-25T06:30:50.831Z,996.00
2022-07-25T06:31:50.882Z,1000.00
2022-07-25T06:32:50.830Z,1008.00
2022-07-25T06:33:50.838Z,1008.00
2022-07-25T06:34:50.867Z,1012.00
2022-07-25T06:35:50.766Z,1008.00
2022-07-25T06:36:50.799Z,1016.00
2022-07-25T06:37:50.784Z,1020.00
2022-07-25T06:38:50.758Z,1024.00
2022-07-25T06:39:50.752Z,1028.00
2022-07-25T06:40:50.727Z,1032.00
2022-07-25T06:41:50.722Z,1040.00
2022-07-25T06:42:50.736Z,1052.00
2022-07-25T06:43:50.689Z,1056.00
2022-07-25T06:44:50.700Z,1056.00
2022-07-25T06:45:50.714Z,1064.00
2022-07-25T06:46:50.713Z,1072.00
2022-07-25T06:47:50.660Z,1072.00
2022-07-25T06:48:50.717Z,1080.00
2022-07-25T06:49:50.657Z,1084.00
2022-07-25T06:50:50.629Z,1092.00
2022-07-25T06:51:50.616Z,1100.00
2022-07-25T06:52:51.729Z,1100.00
2022-07-25T06:53:50.604Z,1104.00
2022-07-25T06:54:50.618Z,1108.00
2022-07-25T06:55:50.597Z,1104.00
2022-07-25T06:56:50.591Z,1112.00
2022-07-25T06:57:50.558Z,1116.00
2022-07-25T06:58:50.542Z,1128.00
2022-07-25T06:59:50.582Z,1140.00
2022-07-25T07:00:50.688Z,1148.00
2022-07-25T07:01:51.817Z,1156.00
2022-07-25T07:02:50.569Z,1168.00
2022-07-25T07:03:50.636Z,1180.00
2022-07-25T07:04:50.475Z,1196.00
2022-07-25T07:05:50.469Z,1204.00
2022-07-25T07:06:50.478Z,1216.00
2022-07-25T07:07:50.433Z,1228.00
2022-07-25T07:08:50.449Z,1240.00
2022-07-25T07:09:50.629Z,1252.00
2022-07-25T07:10:50.449Z,1268.00
2022-07-25T07:11:50.416Z,1284.00
2022-07-25T07:12:50.397Z,1300.00
2022-07-25T07:13:50.381Z,1316.00
2022-07-25T07:14:50.366Z,1324.00
2022-07-25T07:15:50.598Z,1336.00
2022-07-25T07:16:50.355Z,1344.00
2022-07-25T07:17:50.342Z,1352.00
2022-07-25T07:18:50.338Z,1368.00
2022-07-25T07:19:50.325Z,1376.00
2022-07-25T07:20:50.321Z,1384.00
2022-07-25T07:21:50.322Z,1396.00
2022-07-25T07:22:50.297Z,1400.00
2022-07-25T07:23:53.408Z,1408.00
2022-07-25T07:24:50.493Z,1424.00
2022-07-25T07:25:50.281Z,1436.00
2022-07-25T07:26:50.246Z,1440.00
2022-07-25T07:27:50.242Z,1448.00
2022-07-25T07:28:50.251Z,1460.00
2022-07-25T07:29:50.284Z,1472.00
2022-07-25T07:31:51.276Z,1492.00
2022-07-25T07:32:50.201Z,1504.00
2022-07-25T07:33:53.592Z,1512.00
2022-07-25T07:34:50.195Z,1520.00
2022-07-25T07:35:50.223Z,1528.00
2022-07-25T07:36:50.220Z,1536.00
2022-07-25T07:37:50.239Z,1540.00
2022-07-25T07:38:50.150Z,1548.00
2022-07-25T07:39:50.101Z,1556.00
2022-07-25T07:40:50.162Z,1576.00
2022-07-25T07:41:50.119Z,1592.00
2022-07-25T07:42:50.074Z,1596.00
2022-07-25T07:43:50.077Z,1612.00
2022-07-25T07:45:12.600Z,1620.00
2022-07-25T07:45:50.045Z,1620.00
2022-07-25T07:46:50.138Z,1636.00
2022-07-25T07:47:50.024Z,1664.00
2022-07-25T07:48:50.061Z,1660.00
2022-07-25T07:49:50.524Z,1648.00
2022-07-25T07:50:50.016Z,1664.00
2022-07-25T07:51:50.253Z,1672.00
2022-07-25T07:52:49.999Z,1676.00
2022-07-25T07:53:50.775Z,1680.00
2022-07-25T07:54:49.962Z,1680.00
2022-07-25T07:55:50.233Z,1688.00
2022-07-25T07:56:49.949Z,1684.00
2022-07-25T07:57:50.729Z,1716.00
2022-07-25T07:59:00.659Z,1732.00
2022-07-25T07:59:51.419Z,1752.00
2022-07-25T08:00:51.405Z,1768.00
2022-07-25T08:01:49.972Z,1784.00
2022-07-25T08:02:49.981Z,1808.00
2022-07-25T08:03:49.885Z,1844.00
2022-07-25T08:04:49.906Z,1872.00
2022-07-25T08:05:49.868Z,1912.00
2022-07-25T08:06:49.912Z,1936.00
2022-07-25T08:07:49.803Z,1964.00
2022-07-25T08:08:50.057Z,1980.00
2022-07-25T08:09:49.929Z,2012.00
2022-07-25T08:10:49.820Z,2048.00
2022-07-25T08:11:49.856Z,2092.00
2022-07-25T08:12:49.940Z,2124.00
2022-07-25T08:13:50.064Z,2164.00
2022-07-25T08:14:49.838Z,2200.00
2022-07-25T08:15:50.070Z,2244.00
2022-07-25T08:16:49.900Z,2276.00
2022-07-25T08:17:49.822Z,2320.00
2022-07-25T08:18:49.865Z,2376.00
2022-07-25T08:19:49.739Z,2436.00
2022-07-25T08:20:49.720Z,2524.00
2022-07-25T08:21:49.671Z,2640.00
2022-07-25T08:22:54.449Z,2852.00
2022-07-25T08:23:50.687Z,3244.00
2022-07-25T08:24:49.640Z,4228.00
2022-07-25T08:25:49.630Z,6072.00
2022-07-25T08:26:49.613Z,11924.00
2022-07-25T08:27:49.620Z,17312.00
2022-07-25T08:28:59.910Z,22976.00
2022-07-25T08:29:50.610Z,27904.00
2022-07-25T08:30:49.634Z,30592.00
2022-07-25T08:31:49.623Z,36288.00
2022-07-25T08:32:49.574Z,40832.00
2022-07-25T08:33:49.567Z,38240.00
2022-07-25T08:34:49.538Z,33632.00
2022-07-25T08:35:49.556Z,31776.00
2022-07-25T08:36:49.512Z,31072.00
2022-07-25T08:37:49.504Z,29056.00
2022-07-25T08:38:49.509Z,26912.00
2022-07-25T08:39:49.505Z,26112.00
2022-07-25T08:40:49.532Z,25888.00
2022-07-25T08:41:49.487Z,25696.00
2022-07-25T08:42:49.464Z,25984.00
2022-07-25T08:43:49.465Z,26368.00
2022-07-25T08:44:49.449Z,26400.00
2022-07-25T08:45:49.457Z,26080.00
2022-07-25T08:46:49.520Z,25440.00
2022-07-25T08:47:49.423Z,24832.00
2022-07-25T08:48:49.650Z,24864.00
2022-07-25T08:49:49.456Z,24960.00
2022-07-25T08:50:49.695Z,24768.00
2022-07-25T08:51:51.729Z,24864.00
2022-07-25T08:52:49.351Z,24864.00
2022-07-25T08:53:49.399Z,24992.00
2022-07-25T08:54:49.332Z,24832.00
2022-07-25T08:55:49.333Z,24736.00
2022-07-25T08:56:49.411Z,24896.00
2022-07-25T08:57:50.094Z,24992.00
2022-07-25T08:58:49.412Z,25600.00
2022-07-25T08:59:49.448Z,26816.00
2022-07-25T09:00:49.413Z,27840.00
2022-07-25T09:01:49.335Z,30368.00
2022-07-25T09:02:49.315Z,32480.00
2022-07-25T09:03:49.272Z,32768.00
2022-07-25T09:04:49.254Z,34336.00
2022-07-25T09:05:49.249Z,36032.00
2022-07-25T09:06:49.254Z,35808.00
2022-07-25T09:07:49.246Z,33440.00
2022-07-25T09:08:49.217Z,30656.00
2022-07-25T09:09:49.206Z,30592.00
2022-07-25T09:10:49.215Z,32512.00
2022-07-25T09:11:49.215Z,33760.00
2022-07-25T09:12:49.182Z,34752.00
2022-07-25T09:13:49.206Z,41792.00
2022-07-25T09:14:49.190Z,50976.00
2022-07-25T09:15:49.491Z,54240.00
2022-07-25T09:16:49.184Z,57888.00
2022-07-25T09:17:49.169Z,64352.00
2022-07-25T09:18:49.145Z,66240.00
2022-07-25T09:19:49.122Z,60800.00
2022-07-25T09:20:49.136Z,61728.00
2022-07-25T09:21:50.141Z,65440.00
2022-07-25T09:22:49.104Z,67616.00
2022-07-25T09:23:49.107Z,63232.00
2022-07-25T09:24:49.100Z,58752.00
2022-07-25T09:25:49.133Z,59552.00
2022-07-25T09:26:49.113Z,60000.00
2022-07-25T09:27:49.082Z,60800.00
2022-07-25T09:28:49.051Z,72672.00
2022-07-25T09:29:49.075Z,78816.00
2022-07-25T09:30:49.076Z,78880.00
2022-07-25T09:31:49.068Z,80704.00
2022-07-25T09:32:49.032Z,80416.00
2022-07-25T09:33:49.080Z,75008.00
2022-07-25T09:34:49.010Z,72352.00
2022-07-25T09:35:49.108Z,76192.00
2022-07-25T09:36:49.014Z,78880.00
2022-07-25T09:37:48.990Z,74112.00
2022-07-25T09:38:49.775Z,76640.00
2022-07-25T09:39:48.997Z,85536.00
2022-07-25T09:40:48.986Z,89696.00
2022-07-25T09:41:48.985Z,83968.00
2022-07-25T09:42:48.949Z,65984.00
2022-07-25T09:43:48.949Z,53856.00
2022-07-25T09:44:48.928Z,57472.00
2022-07-25T09:45:48.957Z,64224.00
2022-07-25T09:46:48.972Z,63040.00
2022-07-25T09:47:48.947Z,67296.00
2022-07-25T09:48:48.967Z,71456.00
2022-07-25T09:49:49.001Z,78976.00
2022-07-25T09:50:48.877Z,75136.00
2022-07-25T09:51:48.925Z,71488.00
2022-07-25T09:52:49.105Z,69792.00
2022-07-25T09:53:48.879Z,73920.00
2022-07-25T09:54:48.855Z,73056.00
2022-07-25T09:55:48.860Z,61344.00
2022-07-25T09:56:48.865Z,35808.00
2022-07-25T09:57:48.861Z,15936.00
2022-07-25T09:58:48.840Z,6572.00
2022-07-25T09:59:49.054Z,3304.00
2022-07-25T10:00:48.864Z,3080.00
2022-07-25T10:01:48.877Z,2992.00
2022-07-25T10:02:48.918Z,2936.00
2022-07-25T10:03:48.813Z,2852.00
2022-07-25T10:04:48.796Z,2800.00
2022-07-25T10:05:48.772Z,2740.00
2022-07-25T10:06:48.801Z,2732.00
2022-07-25T10:07:48.770Z,2772.00
2022-07-25T10:08:48.776Z,2864.00
2022-07-25T10:09:48.765Z,2980.00
2022-07-25T10:10:48.764Z,2916.00
2022-07-25T10:11:48.760Z,2828.00
2022-07-25T10:12:48.734Z,2688.00
2022-07-25T10:13:48.700Z,2744.00
2022-07-25T10:14:48.707Z,2936.00
2022-07-25T10:15:48.709Z,3252.00
2022-07-25T10:16:48.821Z,3268.00
2022-07-25T10:17:48.665Z,3080.00
2022-07-25T10:18:48.713Z,2792.00
2022-07-25T10:19:52.926Z,2700.00
2022-07-25T10:20:49.644Z,2644.00
2022-07-25T10:21:48.662Z,2960.00
2022-07-25T10:22:57.276Z,3388.00
2022-07-25T10:23:49.646Z,3724.00
2022-07-25T10:24:48.629Z,3332.00
2022-07-25T10:25:49.248Z,2660.00
2022-07-25T10:26:48.626Z,2652.00
2022-07-25T10:27:48.642Z,2580.00
2022-07-25T10:28:48.568Z,2568.00
2022-07-25T10:29:48.555Z,2808.00
2022-07-25T10:30:48.585Z,2832.00
2022-07-25T10:31:51.487Z,3140.00
2022-07-25T10:32:48.555Z,3496.00
2022-07-25T10:33:48.566Z,3816.00
2022-07-25T10:34:48.563Z,3876.00
2022-07-25T10:35:48.501Z,3844.00
2022-07-25T10:36:48.503Z,4384.00
2022-07-25T10:37:49.251Z,5576.00
2022-07-25T10:38:48.497Z,5232.00
2022-07-25T10:39:48.463Z,4012.00
2022-07-25T10:40:48.453Z,3124.00
2022-07-25T10:41:48.446Z,3016.00
2022-07-25T10:42:48.443Z,2944.00
2022-07-25T10:43:48.960Z,2672.00
2022-07-25T10:44:48.448Z,2672.00
2022-07-25T10:45:48.421Z,2528.00
2022-07-25T10:46:48.446Z,2620.00
2022-07-25T10:47:48.376Z,2884.00
2022-07-25T10:48:48.415Z,2988.00
2022-07-25T10:50:16.449Z,3120.00
2022-07-25T10:50:57.008Z,3272.00
2022-07-25T10:51:49.361Z,3296.00
2022-07-25T10:52:48.369Z,3000.00
2022-07-25T10:53:48.390Z,3044.00
2022-07-25T10:54:48.374Z,3204.00
2022-07-25T10:56:04.881Z,3268.00
2022-07-25T10:56:49.324Z,3216.00
2022-07-25T10:58:08.086Z,2928.00
2022-07-25T10:58:49.293Z,2536.00
2022-07-25T10:59:48.322Z,1936.00
2022-07-25T11:00:48.300Z,2712.00
2022-07-25T11:01:48.373Z,3072.00
2022-07-25T11:02:48.346Z,3056.00
2022-07-25T11:03:48.231Z,3108.00
2022-07-25T11:04:48.244Z,3000.00
2022-07-25T11:05:48.362Z,2840.00
2022-07-25T11:06:48.208Z,2888.00
2022-07-25T11:08:11.125Z,3204.00
2022-07-25T11:08:49.194Z,3028.00
2022-07-25T11:09:48.192Z,2904.00
2022-07-25T11:10:48.175Z,2780.00
2022-07-25T11:11:48.156Z,2880.00
2022-07-25T11:12:48.184Z,3176.00
2022-07-25T11:13:48.214Z,3176.00
2022-07-25T11:14:48.124Z,2928.00
2022-07-25T11:15:48.128Z,2620.00
2022-07-25T11:16:48.220Z,2824.00
2022-07-25T11:17:48.116Z,3116.00
2022-07-25T11:18:48.128Z,3004.00
2022-07-25T11:19:48.077Z,3120.00
2022-07-25T11:20:48.071Z,3388.00
2022-07-25T11:21:48.062Z,3416.00
2022-07-25T11:22:48.069Z,3984.00
2022-07-25T11:23:48.050Z,4048.00
2022-07-25T11:24:48.038Z,4236.00
2022-07-25T11:25:48.010Z,4164.00
2022-07-25T11:26:48.031Z,3552.00
2022-07-25T11:27:48.005Z,2956.00
2022-07-25T11:28:48.011Z,3320.00
2022-07-25T11:29:47.973Z,3696.00
2022-07-25T11:30:47.970Z,3876.00
2022-07-25T11:31:48.096Z,3712.00
2022-07-25T11:32:47.946Z,3260.00
2022-07-25T11:33:47.945Z,2804.00
2022-07-25T11:34:47.950Z,2780.00
2022-07-25T11:35:47.942Z,2744.00
2022-07-25T11:36:47.959Z,2888.00
2022-07-25T11:37:47.874Z,3376.00
2022-07-25T11:38:48.056Z,3620.00
2022-07-25T11:39:47.879Z,4192.00
2022-07-25T11:40:47.870Z,4516.00
2022-07-25T11:41:55.251Z,4544.00
2022-07-25T11:42:47.860Z,4708.00
2022-07-25T11:43:47.851Z,4752.00
2022-07-25T11:44:48.324Z,4732.00
2022-07-25T11:45:47.852Z,4232.00
2022-07-25T11:46:47.851Z,3960.00
2022-07-25T11:47:47.815Z,3988.00
2022-07-25T11:48:47.967Z,4356.00
2022-07-25T11:49:47.779Z,4364.00
2022-07-25T11:50:47.813Z,3848.00
2022-07-25T11:51:47.765Z,4104.00
2022-07-25T11:52:47.830Z,4456.00
2022-07-25T11:53:47.760Z,4420.00
2022-07-25T11:54:47.732Z,4524.00
2022-07-25T11:55:47.745Z,4736.00
2022-07-25T11:56:47.810Z,4792.00
2022-07-25T11:57:47.727Z,4552.00
2022-07-25T11:58:47.687Z,4340.00
2022-07-25T11:59:47.672Z,4488.00
2022-07-25T12:00:47.700Z,4512.00
2022-07-25T12:01:47.758Z,4492.00
2022-07-25T12:02:47.776Z,4508.00
2022-07-25T12:03:47.702Z,4788.00
2022-07-25T12:04:47.646Z,4544.00
2022-07-25T12:05:47.695Z,4396.00
2022-07-25T12:06:47.624Z,4124.00
2022-07-25T12:07:47.850Z,4032.00
2022-07-25T12:08:47.610Z,4176.00
2022-07-25T12:09:47.592Z,4424.00
2022-07-25T12:10:47.586Z,4576.00
2022-07-25T12:11:47.563Z,4760.00
2022-07-25T12:12:47.579Z,4848.00
2022-07-25T12:13:47.591Z,5016.00
2022-07-25T12:14:47.561Z,5132.00
2022-07-25T12:15:47.525Z,5224.00
2022-07-25T12:16:47.585Z,5124.00
2022-07-25T12:17:47.505Z,4188.00
2022-07-25T12:18:47.501Z,3672.00
2022-07-25T12:19:47.490Z,3732.00
2022-07-25T12:20:47.505Z,4384.00
2022-07-25T12:21:47.471Z,4164.00
2022-07-25T12:22:47.574Z,4084.00
2022-07-25T12:23:47.442Z,4264.00
2022-07-25T12:24:47.439Z,4280.00
2022-07-25T12:25:47.449Z,4384.00
2022-07-25T12:26:47.427Z,4836.00
2022-07-25T12:27:47.408Z,4520.00
2022-07-25T12:28:47.391Z,4052.00
2022-07-25T12:29:47.447Z,3964.00